sensor_id;sensor_type;location;lat;lon;timestamp;temperature;humidity
43049;DHT22;28673;44.412;11.918;2023-07-29T00:02:10;24.00;91.60
43049;DHT22;28673;44.412;11.918;2023-07-29T00:04:36;24.00;91.60
43049;DHT22;28673;44.412;11.918;2023-07-29T00:07:01;23.90;91.70
43049;DHT22;28673;44.412;11.918;2023-07-29T00:09:27;23.90;91.70
43049;DHT22;28673;44.412;11.918;2023-07-29T00:11:53;23.90;91.80
43049;DHT22;28673;44.412;11.918;2023-07-29T00:14:19;23.90;91.80
43049;DHT22;28673;44.412;11.918;2023-07-29T00:16:45;23.90;91.90
43049;DHT22;28673;44.412;11.918;2023-07-29T00:19:11;23.90;91.90
43049;DHT22;28673;44.412;11.918;2023-07-29T00:21:37;23.90;92.00
43049;DHT22;28673;44.412;11.918;2023-07-29T00:24:03;23.90;92.10
43049;DHT22;28673;44.412;11.918;2023-07-29T00:26:28;23.80;92.10
43049;DHT22;28673;44.412;11.918;2023-07-29T00:28:58;23.80;92.20
43049;DHT22;28673;44.412;11.918;2023-07-29T00:31:24;23.80;92.30
43049;DHT22;28673;44.412;11.918;2023-07-29T00:33:50;23.70;92.40
43049;DHT22;28673;44.412;11.918;2023-07-29T00:36:18;23.70;92.40
43049;DHT22;28673;44.412;11.918;2023-07-29T00:38:44;23.70;92.50
43049;DHT22;28673;44.412;11.918;2023-07-29T00:41:11;23.70;92.80
43049;DHT22;28673;44.412;11.918;2023-07-29T00:43:41;23.70;92.60
43049;DHT22;28673;44.412;11.918;2023-07-29T00:46:08;23.70;93.10
43049;DHT22;28673;44.412;11.918;2023-07-29T00:48:35;23.70;92.60
43049;DHT22;28673;44.412;11.918;2023-07-29T00:51:02;23.70;92.80
43049;DHT22;28673;44.412;11.918;2023-07-29T00:53:27;23.60;92.90
43049;DHT22;28673;44.412;11.918;2023-07-29T00:55:53;23.60;92.90
43049;DHT22;28673;44.412;11.918;2023-07-29T00:58:19;23.60;93.00
43049;DHT22;28673;44.412;11.918;2023-07-29T01:00:47;23.60;93.10
43049;DHT22;28673;44.412;11.918;2023-07-29T01:03:13;23.60;93.10
43049;DHT22;28673;44.412;11.918;2023-07-29T01:05:50;23.60;93.20
43049;DHT22;28673;44.412;11.918;2023-07-29T01:11:10;23.60;93.30
43049;DHT22;28673;44.412;11.918;2023-07-29T01:14:26;23.60;93.30
43049;DHT22;28673;44.412;11.918;2023-07-29T01:16:58;23.60;93.50
43049;DHT22;28673;44.412;11.918;2023-07-29T01:22:13;23.60;93.60
43049;DHT22;28673;44.412;11.918;2023-07-29T01:24:39;23.60;93.30
43049;DHT22;28673;44.412;11.918;2023-07-29T01:27:05;23.50;93.40
43049;DHT22;28673;44.412;11.918;2023-07-29T01:29:31;23.50;93.40
43049;DHT22;28673;44.412;11.918;2023-07-29T01:32:13;23.50;93.50
43049;DHT22;28673;44.412;11.918;2023-07-29T01:35:08;23.50;93.70
43049;DHT22;28673;44.412;11.918;2023-07-29T01:37:39;23.50;93.80
43049;DHT22;28673;44.412;11.918;2023-07-29T01:40:07;23.50;93.60
43049;DHT22;28673;44.412;11.918;2023-07-29T01:42:34;23.50;93.60
43049;DHT22;28673;44.412;11.918;2023-07-29T01:45:00;23.50;93.70
43049;DHT22;28673;44.412;11.918;2023-07-29T01:47:26;23.50;93.70
43049;DHT22;28673;44.412;11.918;2023-07-29T01:49:54;23.40;93.80
43049;DHT22;28673;44.412;11.918;2023-07-29T01:52:20;23.40;93.80
43049;DHT22;28673;44.412;11.918;2023-07-29T01:54:46;23.40;93.90
43049;DHT22;28673;44.412;11.918;2023-07-29T01:57:11;23.40;94.00
43049;DHT22;28673;44.412;11.918;2023-07-29T01:59:37;23.40;94.00
43049;DHT22;28673;44.412;11.918;2023-07-29T02:02:03;23.40;94.10
43049;DHT22;28673;44.412;11.918;2023-07-29T02:04:29;23.30;94.10
43049;DHT22;28673;44.412;11.918;2023-07-29T02:06:55;23.30;94.10
43049;DHT22;28673;44.412;11.918;2023-07-29T02:09:21;23.30;94.10
43049;DHT22;28673;44.412;11.918;2023-07-29T02:11:47;23.30;94.20
43049;DHT22;28673;44.412;11.918;2023-07-29T02:14:13;23.30;94.20
43049;DHT22;28673;44.412;11.918;2023-07-29T02:16:38;23.30;94.30
43049;DHT22;28673;44.412;11.918;2023-07-29T02:19:05;23.30;94.30
43049;DHT22;28673;44.412;11.918;2023-07-29T02:21:31;23.20;94.30
43049;DHT22;28673;44.412;11.918;2023-07-29T02:23:56;23.20;94.40
43049;DHT22;28673;44.412;11.918;2023-07-29T02:26:23;23.20;94.50
43049;DHT22;28673;44.412;11.918;2023-07-29T02:28:49;23.20;94.50
43049;DHT22;28673;44.412;11.918;2023-07-29T02:31:17;23.20;94.60
43049;DHT22;28673;44.412;11.918;2023-07-29T02:33:44;23.10;94.60
43049;DHT22;28673;44.412;11.918;2023-07-29T02:36:12;23.20;94.60
43049;DHT22;28673;44.412;11.918;2023-07-29T02:38:39;23.10;94.70
43049;DHT22;28673;44.412;11.918;2023-07-29T02:41:06;23.10;94.70
43049;DHT22;28673;44.412;11.918;2023-07-29T02:43:32;23.10;94.80
43049;DHT22;28673;44.412;11.918;2023-07-29T02:45:58;23.10;94.80
43049;DHT22;28673;44.412;11.918;2023-07-29T02:48:25;23.00;94.90
43049;DHT22;28673;44.412;11.918;2023-07-29T02:50:51;23.00;95.00
43049;DHT22;28673;44.412;11.918;2023-07-29T02:53:17;23.00;95.00
43049;DHT22;28673;44.412;11.918;2023-07-29T02:55:43;23.00;95.00
43049;DHT22;28673;44.412;11.918;2023-07-29T02:58:08;23.00;95.10
43049;DHT22;28673;44.412;11.918;2023-07-29T03:00:34;23.00;95.10
43049;DHT22;28673;44.412;11.918;2023-07-29T03:03:01;23.00;95.10
43049;DHT22;28673;44.412;11.918;2023-07-29T03:05:29;23.00;95.10
43049;DHT22;28673;44.412;11.918;2023-07-29T03:07:57;22.90;95.10
43049;DHT22;28673;44.412;11.918;2023-07-29T03:10:23;22.90;95.20
43049;DHT22;28673;44.412;11.918;2023-07-29T03:12:49;22.90;95.20
43049;DHT22;28673;44.412;11.918;2023-07-29T03:15:15;22.90;95.30
43049;DHT22;28673;44.412;11.918;2023-07-29T03:17:41;22.80;95.40
43049;DHT22;28673;44.412;11.918;2023-07-29T03:20:07;22.90;95.50
43049;DHT22;28673;44.412;11.918;2023-07-29T03:22:33;22.80;95.50
43049;DHT22;28673;44.412;11.918;2023-07-29T03:24:59;22.90;95.50
43049;DHT22;28673;44.412;11.918;2023-07-29T03:27:24;22.90;95.60
43049;DHT22;28673;44.412;11.918;2023-07-29T03:29:50;22.90;95.60
43049;DHT22;28673;44.412;11.918;2023-07-29T03:32:16;22.90;95.60
43049;DHT22;28673;44.412;11.918;2023-07-29T03:34:42;22.80;95.70
43049;DHT22;28673;44.412;11.918;2023-07-29T03:37:08;22.80;95.70
43049;DHT22;28673;44.412;11.918;2023-07-29T03:39:34;22.80;95.70
43049;DHT22;28673;44.412;11.918;2023-07-29T03:42:00;22.80;95.80
43049;DHT22;28673;44.412;11.918;2023-07-29T03:44:25;22.70;95.90
43049;DHT22;28673;44.412;11.918;2023-07-29T03:46:51;22.70;95.90
43049;DHT22;28673;44.412;11.918;2023-07-29T03:49:17;22.70;96.00
43049;DHT22;28673;44.412;11.918;2023-07-29T03:51:43;22.70;96.10
43049;DHT22;28673;44.412;11.918;2023-07-29T03:54:09;22.70;96.10
43049;DHT22;28673;44.412;11.918;2023-07-29T03:56:35;22.70;96.10
43049;DHT22;28673;44.412;11.918;2023-07-29T03:59:07;22.70;96.10
43049;DHT22;28673;44.412;11.918;2023-07-29T04:01:33;22.70;96.20
43049;DHT22;28673;44.412;11.918;2023-07-29T04:03:59;22.70;96.20
43049;DHT22;28673;44.412;11.918;2023-07-29T04:06:25;22.70;96.20
43049;DHT22;28673;44.412;11.918;2023-07-29T04:08:51;22.60;96.20
43049;DHT22;28673;44.412;11.918;2023-07-29T04:11:17;22.60;96.30
43049;DHT22;28673;44.412;11.918;2023-07-29T04:13:43;22.60;96.40
43049;DHT22;28673;44.412;11.918;2023-07-29T04:16:09;22.60;96.70
43049;DHT22;28673;44.412;11.918;2023-07-29T04:18:35;22.60;96.50
43049;DHT22;28673;44.412;11.918;2023-07-29T04:21:02;22.70;96.50
43049;DHT22;28673;44.412;11.918;2023-07-29T04:23:28;22.70;96.60
43049;DHT22;28673;44.412;11.918;2023-07-29T04:25:54;22.70;96.60
43049;DHT22;28673;44.412;11.918;2023-07-29T04:28:20;22.70;96.60
43049;DHT22;28673;44.412;11.918;2023-07-29T04:30:48;22.70;96.70
43049;DHT22;28673;44.412;11.918;2023-07-29T04:33:14;22.70;96.70
43049;DHT22;28673;44.412;11.918;2023-07-29T04:35:40;22.70;96.80
43049;DHT22;28673;44.412;11.918;2023-07-29T04:38:06;22.60;96.80
43049;DHT22;28673;44.412;11.918;2023-07-29T04:40:35;22.70;96.90
43049;DHT22;28673;44.412;11.918;2023-07-29T04:43:01;22.70;97.10
43049;DHT22;28673;44.412;11.918;2023-07-29T04:45:30;22.70;97.20
43049;DHT22;28673;44.412;11.918;2023-07-29T04:47:57;22.70;97.20
43049;DHT22;28673;44.412;11.918;2023-07-29T04:50:23;22.70;97.20
43049;DHT22;28673;44.412;11.918;2023-07-29T04:52:50;22.70;97.20
43049;DHT22;28673;44.412;11.918;2023-07-29T04:55:16;22.80;97.30
43049;DHT22;28673;44.412;11.918;2023-07-29T04:57:44;22.80;97.40
43049;DHT22;28673;44.412;11.918;2023-07-29T05:00:10;22.80;97.60
43049;DHT22;28673;44.412;11.918;2023-07-29T05:02:39;22.80;97.70
43049;DHT22;28673;44.412;11.918;2023-07-29T05:05:05;22.80;97.70
43049;DHT22;28673;44.412;11.918;2023-07-29T05:07:31;22.80;98.00
43049;DHT22;28673;44.412;11.918;2023-07-29T05:09:57;22.80;97.80
43049;DHT22;28673;44.412;11.918;2023-07-29T05:12:23;22.90;97.90
43049;DHT22;28673;44.412;11.918;2023-07-29T05:14:49;22.90;98.00
43049;DHT22;28673;44.412;11.918;2023-07-29T05:17:15;23.00;98.00
43049;DHT22;28673;44.412;11.918;2023-07-29T05:19:40;23.10;98.10
43049;DHT22;28673;44.412;11.918;2023-07-29T05:22:06;23.20;98.20
43049;DHT22;28673;44.412;11.918;2023-07-29T05:24:32;23.20;98.10
43049;DHT22;28673;44.412;11.918;2023-07-29T05:26:58;23.30;98.20
43049;DHT22;28673;44.412;11.918;2023-07-29T05:29:24;23.40;98.10
43049;DHT22;28673;44.412;11.918;2023-07-29T05:31:50;23.50;98.20
43049;DHT22;28673;44.412;11.918;2023-07-29T05:34:16;23.60;98.20
43049;DHT22;28673;44.412;11.918;2023-07-29T05:36:42;23.70;98.20
43049;DHT22;28673;44.412;11.918;2023-07-29T05:39:07;23.70;98.10
43049;DHT22;28673;44.412;11.918;2023-07-29T05:41:33;23.80;98.00
43049;DHT22;28673;44.412;11.918;2023-07-29T05:43:59;23.90;98.10
43049;DHT22;28673;44.412;11.918;2023-07-29T05:46:25;23.90;98.10
43049;DHT22;28673;44.412;11.918;2023-07-29T05:48:51;24.00;98.00
43049;DHT22;28673;44.412;11.918;2023-07-29T05:51:17;24.10;98.00
43049;DHT22;28673;44.412;11.918;2023-07-29T05:53:43;24.10;98.00
43049;DHT22;28673;44.412;11.918;2023-07-29T05:56:09;24.30;98.00
43049;DHT22;28673;44.412;11.918;2023-07-29T05:58:36;24.40;97.90
43049;DHT22;28673;44.412;11.918;2023-07-29T06:01:01;24.40;97.80
43049;DHT22;28673;44.412;11.918;2023-07-29T06:06:04;24.70;97.80
43049;DHT22;28673;44.412;11.918;2023-07-29T06:08:30;24.80;97.50
43049;DHT22;28673;44.412;11.918;2023-07-29T06:10:58;25.00;97.40
43049;DHT22;28673;44.412;11.918;2023-07-29T06:13:24;25.10;97.40
43049;DHT22;28673;44.412;11.918;2023-07-29T06:15:50;25.30;97.30
43049;DHT22;28673;44.412;11.918;2023-07-29T06:18:16;25.40;97.10
43049;DHT22;28673;44.412;11.918;2023-07-29T06:20:43;25.50;97.00
43049;DHT22;28673;44.412;11.918;2023-07-29T06:23:09;25.70;96.90
43049;DHT22;28673;44.412;11.918;2023-07-29T06:25:35;25.80;96.60
43049;DHT22;28673;44.412;11.918;2023-07-29T06:28:00;26.00;96.50
43049;DHT22;28673;44.412;11.918;2023-07-29T06:30:26;26.10;96.30
43049;DHT22;28673;44.412;11.918;2023-07-29T06:32:52;26.30;96.10
43049;DHT22;28673;44.412;11.918;2023-07-29T06:35:18;26.40;96.00
43049;DHT22;28673;44.412;11.918;2023-07-29T06:37:44;26.60;95.80
43049;DHT22;28673;44.412;11.918;2023-07-29T06:40:10;26.70;95.60
43049;DHT22;28673;44.412;11.918;2023-07-29T06:42:36;26.90;95.40
43049;DHT22;28673;44.412;11.918;2023-07-29T06:45:04;27.10;95.30
43049;DHT22;28673;44.412;11.918;2023-07-29T06:47:30;27.20;95.10
43049;DHT22;28673;44.412;11.918;2023-07-29T06:49:56;27.40;94.70
43049;DHT22;28673;44.412;11.918;2023-07-29T06:52:21;27.50;94.40
43049;DHT22;28673;44.412;11.918;2023-07-29T06:54:47;27.70;94.20
43049;DHT22;28673;44.412;11.918;2023-07-29T06:57:13;27.90;94.00
43049;DHT22;28673;44.412;11.918;2023-07-29T06:59:39;28.00;93.70
43049;DHT22;28673;44.412;11.918;2023-07-29T07:02:06;28.20;93.60
43049;DHT22;28673;44.412;11.918;2023-07-29T07:04:32;28.40;93.20
43049;DHT22;28673;44.412;11.918;2023-07-29T07:06:58;28.50;93.10
43049;DHT22;28673;44.412;11.918;2023-07-29T07:09:24;28.70;92.80
43049;DHT22;28673;44.412;11.918;2023-07-29T07:11:50;28.80;92.50
43049;DHT22;28673;44.412;11.918;2023-07-29T07:14:15;29.00;92.00
43049;DHT22;28673;44.412;11.918;2023-07-29T07:16:41;29.20;91.80
43049;DHT22;28673;44.412;11.918;2023-07-29T07:19:07;29.40;91.70
43049;DHT22;28673;44.412;11.918;2023-07-29T07:21:33;29.50;91.10
43049;DHT22;28673;44.412;11.918;2023-07-29T07:24:01;29.70;91.10
43049;DHT22;28673;44.412;11.918;2023-07-29T07:26:27;29.80;90.90
43049;DHT22;28673;44.412;11.918;2023-07-29T07:28:53;30.10;90.60
43049;DHT22;28673;44.412;11.918;2023-07-29T07:31:19;30.20;90.20
43049;DHT22;28673;44.412;11.918;2023-07-29T07:33:45;30.30;89.60
43049;DHT22;28673;44.412;11.918;2023-07-29T07:36:11;30.50;89.40
43049;DHT22;28673;44.412;11.918;2023-07-29T07:38:37;30.70;89.10
43049;DHT22;28673;44.412;11.918;2023-07-29T07:41:02;30.80;88.40
43049;DHT22;28673;44.412;11.918;2023-07-29T07:43:28;31.00;87.80
43049;DHT22;28673;44.412;11.918;2023-07-29T07:45:59;31.20;86.90
43049;DHT22;28673;44.412;11.918;2023-07-29T07:48:25;31.40;84.70
43049;DHT22;28673;44.412;11.918;2023-07-29T07:50:51;31.50;85.20
43049;DHT22;28673;44.412;11.918;2023-07-29T07:53:17;31.70;84.80
43049;DHT22;28673;44.412;11.918;2023-07-29T07:55:43;31.80;84.40
43049;DHT22;28673;44.412;11.918;2023-07-29T07:58:08;32.00;84.20
43049;DHT22;28673;44.412;11.918;2023-07-29T08:00:34;32.20;83.80
43049;DHT22;28673;44.412;11.918;2023-07-29T08:03:00;32.30;83.40
43049;DHT22;28673;44.412;11.918;2023-07-29T08:05:26;32.50;82.60
43049;DHT22;28673;44.412;11.918;2023-07-29T08:07:52;32.70;82.60
43049;DHT22;28673;44.412;11.918;2023-07-29T08:10:18;32.90;82.50
43049;DHT22;28673;44.412;11.918;2023-07-29T08:12:43;33.20;81.90
43049;DHT22;28673;44.412;11.918;2023-07-29T08:15:09;33.40;81.30
43049;DHT22;28673;44.412;11.918;2023-07-29T08:17:35;33.60;79.90
43049;DHT22;28673;44.412;11.918;2023-07-29T08:20:01;33.60;79.60
43049;DHT22;28673;44.412;11.918;2023-07-29T08:22:27;33.80;79.30
43049;DHT22;28673;44.412;11.918;2023-07-29T08:24:53;33.90;79.00
43049;DHT22;28673;44.412;11.918;2023-07-29T08:27:18;34.10;78.60
43049;DHT22;28673;44.412;11.918;2023-07-29T08:29:44;34.30;78.30
43049;DHT22;28673;44.412;11.918;2023-07-29T08:32:10;34.50;78.10
43049;DHT22;28673;44.412;11.918;2023-07-29T08:34:36;34.70;76.80
43049;DHT22;28673;44.412;11.918;2023-07-29T08:37:02;34.90;76.20
43049;DHT22;28673;44.412;11.918;2023-07-29T08:39:28;35.10;75.90
43049;DHT22;28673;44.412;11.918;2023-07-29T08:42:04;35.30;75.50
43049;DHT22;28673;44.412;11.918;2023-07-29T08:44:43;35.60;74.90
43049;DHT22;28673;44.412;11.918;2023-07-29T08:47:09;35.80;74.10
43049;DHT22;28673;44.412;11.918;2023-07-29T08:49:37;36.00;73.80
43049;DHT22;28673;44.412;11.918;2023-07-29T08:52:04;36.20;73.30
43049;DHT22;28673;44.412;11.918;2023-07-29T08:54:30;36.30;72.40
43049;DHT22;28673;44.412;11.918;2023-07-29T08:56:57;36.50;72.60
43049;DHT22;28673;44.412;11.918;2023-07-29T08:59:23;36.70;72.30
43049;DHT22;28673;44.412;11.918;2023-07-29T09:01:49;36.80;71.00
43049;DHT22;28673;44.412;11.918;2023-07-29T09:04:16;37.00;70.90
43049;DHT22;28673;44.412;11.918;2023-07-29T09:06:43;37.20;70.40
43049;DHT22;28673;44.412;11.918;2023-07-29T09:09:10;37.30;70.20
43049;DHT22;28673;44.412;11.918;2023-07-29T09:11:36;37.50;69.80
43049;DHT22;28673;44.412;11.918;2023-07-29T09:14:02;37.60;69.30
43049;DHT22;28673;44.412;11.918;2023-07-29T09:16:27;37.50;69.60
43049;DHT22;28673;44.412;11.918;2023-07-29T09:18:53;37.40;69.70
43049;DHT22;28673;44.412;11.918;2023-07-29T09:21:24;37.50;69.40
43049;DHT22;28673;44.412;11.918;2023-07-29T09:23:52;37.50;68.50
43049;DHT22;28673;44.412;11.918;2023-07-29T09:26:25;37.60;69.00
43049;DHT22;28673;44.412;11.918;2023-07-29T09:28:56;37.70;68.80
43049;DHT22;28673;44.412;11.918;2023-07-29T09:31:24;38.00;68.50
43049;DHT22;28673;44.412;11.918;2023-07-29T09:33:53;38.20;68.60
43049;DHT22;28673;44.412;11.918;2023-07-29T09:36:21;38.50;68.30
43049;DHT22;28673;44.412;11.918;2023-07-29T09:38:47;38.60;68.30
43049;DHT22;28673;44.412;11.918;2023-07-29T09:41:15;38.80;68.00
43049;DHT22;28673;44.412;11.918;2023-07-29T09:43:41;39.00;67.60
43049;DHT22;28673;44.412;11.918;2023-07-29T09:46:07;39.10;66.60
43049;DHT22;28673;44.412;11.918;2023-07-29T09:48:34;39.20;66.50
43049;DHT22;28673;44.412;11.918;2023-07-29T09:50:59;39.40;66.40
43049;DHT22;28673;44.412;11.918;2023-07-29T09:53:26;39.50;66.30
43049;DHT22;28673;44.412;11.918;2023-07-29T09:55:53;39.60;66.30
43049;DHT22;28673;44.412;11.918;2023-07-29T09:58:26;39.80;66.00
43049;DHT22;28673;44.412;11.918;2023-07-29T10:00:52;39.90;65.30
43049;DHT22;28673;44.412;11.918;2023-07-29T10:03:21;40.00;65.10
43049;DHT22;28673;44.412;11.918;2023-07-29T10:05:48;40.10;64.40
43049;DHT22;28673;44.412;11.918;2023-07-29T10:08:14;40.20;64.40
43049;DHT22;28673;44.412;11.918;2023-07-29T10:10:43;40.30;64.30
43049;DHT22;28673;44.412;11.918;2023-07-29T10:13:09;40.50;63.60
43049;DHT22;28673;44.412;11.918;2023-07-29T10:15:36;40.70;62.90
43049;DHT22;28673;44.412;11.918;2023-07-29T10:18:02;40.70;62.30
43049;DHT22;28673;44.412;11.918;2023-07-29T10:20:30;40.80;62.30
43049;DHT22;28673;44.412;11.918;2023-07-29T10:22:59;40.90;61.90
43049;DHT22;28673;44.412;11.918;2023-07-29T10:25:34;41.00;62.00
43049;DHT22;28673;44.412;11.918;2023-07-29T10:28:06;41.10;61.10
43049;DHT22;28673;44.412;11.918;2023-07-29T10:30:33;41.10;60.70
43049;DHT22;28673;44.412;11.918;2023-07-29T10:33:02;41.20;61.40
43049;DHT22;28673;44.412;11.918;2023-07-29T10:35:29;41.30;61.20
43049;DHT22;28673;44.412;11.918;2023-07-29T10:37:56;41.50;60.90
43049;DHT22;28673;44.412;11.918;2023-07-29T10:40:22;41.70;60.80
43049;DHT22;28673;44.412;11.918;2023-07-29T10:43:11;41.50;60.70
43049;DHT22;28673;44.412;11.918;2023-07-29T10:45:41;41.50;59.90
43049;DHT22;28673;44.412;11.918;2023-07-29T10:48:10;41.80;60.50
43049;DHT22;28673;44.412;11.918;2023-07-29T10:50:36;41.90;60.10
43049;DHT22;28673;44.412;11.918;2023-07-29T10:53:02;42.10;59.60
43049;DHT22;28673;44.412;11.918;2023-07-29T10:55:32;42.30;59.90
43049;DHT22;28673;44.412;11.918;2023-07-29T10:58:15;42.40;59.40
43049;DHT22;28673;44.412;11.918;2023-07-29T11:00:45;42.60;58.90
43049;DHT22;28673;44.412;11.918;2023-07-29T11:03:12;42.70;58.90
43049;DHT22;28673;44.412;11.918;2023-07-29T11:05:47;42.70;58.30
43049;DHT22;28673;44.412;11.918;2023-07-29T11:10:58;42.70;58.60
43049;DHT22;28673;44.412;11.918;2023-07-29T11:13:27;42.60;57.90
43049;DHT22;28673;44.412;11.918;2023-07-29T11:15:54;42.50;58.60
43049;DHT22;28673;44.412;11.918;2023-07-29T11:18:21;42.50;58.30
43049;DHT22;28673;44.412;11.918;2023-07-29T11:20:46;42.50;58.20
43049;DHT22;28673;44.412;11.918;2023-07-29T11:23:13;42.60;58.10
43049;DHT22;28673;44.412;11.918;2023-07-29T11:25:39;42.60;58.20
43049;DHT22;28673;44.412;11.918;2023-07-29T11:28:05;42.70;58.40
43049;DHT22;28673;44.412;11.918;2023-07-29T11:30:31;42.90;59.00
43049;DHT22;28673;44.412;11.918;2023-07-29T11:32:59;42.80;58.60
43049;DHT22;28673;44.412;11.918;2023-07-29T11:35:25;42.90;58.50
43049;DHT22;28673;44.412;11.918;2023-07-29T11:37:54;43.10;58.30
43049;DHT22;28673;44.412;11.918;2023-07-29T11:40:21;43.40;57.90
43049;DHT22;28673;44.412;11.918;2023-07-29T11:42:48;43.60;57.40
43049;DHT22;28673;44.412;11.918;2023-07-29T11:45:18;43.90;57.20
43049;DHT22;28673;44.412;11.918;2023-07-29T11:47:45;44.20;57.40
43049;DHT22;28673;44.412;11.918;2023-07-29T11:50:13;44.30;57.20
43049;DHT22;28673;44.412;11.918;2023-07-29T11:52:43;44.40;57.10
43049;DHT22;28673;44.412;11.918;2023-07-29T11:55:10;44.30;56.70
43049;DHT22;28673;44.412;11.918;2023-07-29T11:57:37;44.40;56.90
43049;DHT22;28673;44.412;11.918;2023-07-29T12:00:05;44.50;56.90
43049;DHT22;28673;44.412;11.918;2023-07-29T12:02:37;44.30;56.70
43049;DHT22;28673;44.412;11.918;2023-07-29T12:05:04;44.10;56.50
43049;DHT22;28673;44.412;11.918;2023-07-29T12:07:31;43.90;57.10
43049;DHT22;28673;44.412;11.918;2023-07-29T12:09:59;43.70;57.30
43049;DHT22;28673;44.412;11.918;2023-07-29T12:12:25;43.30;57.90
43049;DHT22;28673;44.412;11.918;2023-07-29T12:14:51;43.20;58.00
43049;DHT22;28673;44.412;11.918;2023-07-29T12:17:18;43.00;57.80
43049;DHT22;28673;44.412;11.918;2023-07-29T12:19:44;42.70;57.80
43049;DHT22;28673;44.412;11.918;2023-07-29T12:22:10;42.30;58.40
43049;DHT22;28673;44.412;11.918;2023-07-29T12:24:39;41.90;58.50
43049;DHT22;28673;44.412;11.918;2023-07-29T12:27:06;41.60;58.90
43049;DHT22;28673;44.412;11.918;2023-07-29T12:29:40;41.20;59.30
43049;DHT22;28673;44.412;11.918;2023-07-29T12:32:07;41.10;59.40
43049;DHT22;28673;44.412;11.918;2023-07-29T12:34:32;41.10;60.00
43049;DHT22;28673;44.412;11.918;2023-07-29T12:36:59;41.10;59.20
43049;DHT22;28673;44.412;11.918;2023-07-29T12:39:29;41.30;59.60
43049;DHT22;28673;44.412;11.918;2023-07-29T12:42:00;41.40;59.50
43049;DHT22;28673;44.412;11.918;2023-07-29T12:44:36;41.40;59.60
43049;DHT22;28673;44.412;11.918;2023-07-29T12:47:03;41.30;58.50
43049;DHT22;28673;44.412;11.918;2023-07-29T12:49:30;41.30;58.90
43049;DHT22;28673;44.412;11.918;2023-07-29T12:51:57;41.40;58.90
43049;DHT22;28673;44.412;11.918;2023-07-29T12:54:23;41.70;59.00
43049;DHT22;28673;44.412;11.918;2023-07-29T12:56:49;41.90;58.50
43049;DHT22;28673;44.412;11.918;2023-07-29T12:59:15;42.20;58.40
43049;DHT22;28673;44.412;11.918;2023-07-29T13:01:41;42.40;58.70
43049;DHT22;28673;44.412;11.918;2023-07-29T13:04:07;42.40;58.60
43049;DHT22;28673;44.412;11.918;2023-07-29T13:06:33;42.70;58.80
43049;DHT22;28673;44.412;11.918;2023-07-29T13:09:00;42.90;58.40
43049;DHT22;28673;44.412;11.918;2023-07-29T13:45:38;44.30;57.00
43049;DHT22;28673;44.412;11.918;2023-07-29T13:48:04;44.00;57.30
43049;DHT22;28673;44.412;11.918;2023-07-29T13:50:30;43.70;57.40
43049;DHT22;28673;44.412;11.918;2023-07-29T13:52:56;43.40;57.40
43049;DHT22;28673;44.412;11.918;2023-07-29T13:55:22;43.10;57.80
43049;DHT22;28673;44.412;11.918;2023-07-29T13:57:48;42.90;58.00
43049;DHT22;28673;44.412;11.918;2023-07-29T14:00:14;42.90;57.60
43049;DHT22;28673;44.412;11.918;2023-07-29T14:02:41;42.70;57.20
43049;DHT22;28673;44.412;11.918;2023-07-29T14:05:07;42.60;57.50
43049;DHT22;28673;44.412;11.918;2023-07-29T14:07:33;42.50;57.50
43049;DHT22;28673;44.412;11.918;2023-07-29T14:09:59;42.70;58.00
43049;DHT22;28673;44.412;11.918;2023-07-29T14:12:25;42.90;57.50
43049;DHT22;28673;44.412;11.918;2023-07-29T14:14:50;42.90;57.70
43049;DHT22;28673;44.412;11.918;2023-07-29T14:17:16;42.80;58.50
43049;DHT22;28673;44.412;11.918;2023-07-29T14:19:42;42.70;59.00
43049;DHT22;28673;44.412;11.918;2023-07-29T14:22:08;42.70;58.30
43049;DHT22;28673;44.412;11.918;2023-07-29T14:24:34;42.70;58.00
43049;DHT22;28673;44.412;11.918;2023-07-29T14:26:59;42.60;59.10
43049;DHT22;28673;44.412;11.918;2023-07-29T14:29:25;42.60;59.90
43049;DHT22;28673;44.412;11.918;2023-07-29T14:31:51;42.50;60.00
43049;DHT22;28673;44.412;11.918;2023-07-29T14:34:17;42.50;60.20
43049;DHT22;28673;44.412;11.918;2023-07-29T14:36:43;42.30;60.20
43049;DHT22;28673;44.412;11.918;2023-07-29T14:39:09;42.10;60.70
43049;DHT22;28673;44.412;11.918;2023-07-29T14:41:35;41.80;61.20
43049;DHT22;28673;44.412;11.918;2023-07-29T14:44:00;41.50;61.60
43049;DHT22;28673;44.412;11.918;2023-07-29T14:46:26;41.20;61.80
43049;DHT22;28673;44.412;11.918;2023-07-29T14:48:52;41.00;62.30
43049;DHT22;28673;44.412;11.918;2023-07-29T14:51:18;40.70;62.60
43049;DHT22;28673;44.412;11.918;2023-07-29T14:53:44;40.50;62.80
43049;DHT22;28673;44.412;11.918;2023-07-29T14:56:10;40.40;63.40
43049;DHT22;28673;44.412;11.918;2023-07-29T14:58:36;40.40;63.10
43049;DHT22;28673;44.412;11.918;2023-07-29T15:01:02;40.20;63.20
43049;DHT22;28673;44.412;11.918;2023-07-29T15:03:28;40.00;63.60
43049;DHT22;28673;44.412;11.918;2023-07-29T15:05:54;39.80;63.70
43049;DHT22;28673;44.412;11.918;2023-07-29T15:08:20;39.70;63.70
43049;DHT22;28673;44.412;11.918;2023-07-29T15:10:46;39.80;63.60
43049;DHT22;28673;44.412;11.918;2023-07-29T15:13:12;39.70;63.40
43049;DHT22;28673;44.412;11.918;2023-07-29T15:15:44;39.70;64.20
43049;DHT22;28673;44.412;11.918;2023-07-29T15:18:10;39.80;63.70
43049;DHT22;28673;44.412;11.918;2023-07-29T15:20:36;39.80;63.80
43049;DHT22;28673;44.412;11.918;2023-07-29T15:23:02;39.60;64.00
43049;DHT22;28673;44.412;11.918;2023-07-29T15:25:28;39.60;64.20
43049;DHT22;28673;44.412;11.918;2023-07-29T15:27:54;39.50;64.10
43049;DHT22;28673;44.412;11.918;2023-07-29T15:30:20;39.50;64.30
43049;DHT22;28673;44.412;11.918;2023-07-29T15:32:46;39.40;64.40
43049;DHT22;28673;44.412;11.918;2023-07-29T15:35:12;39.50;64.30
43049;DHT22;28673;44.412;11.918;2023-07-29T15:37:38;39.30;64.30
43049;DHT22;28673;44.412;11.918;2023-07-29T15:40:05;39.40;64.70
43049;DHT22;28673;44.412;11.918;2023-07-29T15:42:32;39.40;64.40
43049;DHT22;28673;44.412;11.918;2023-07-29T15:44:58;39.50;64.30
43049;DHT22;28673;44.412;11.918;2023-07-29T15:47:23;39.50;64.60
43049;DHT22;28673;44.412;11.918;2023-07-29T15:49:50;39.50;64.60
43049;DHT22;28673;44.412;11.918;2023-07-29T15:52:16;39.30;64.90
43049;DHT22;28673;44.412;11.918;2023-07-29T15:54:43;39.10;65.20
43049;DHT22;28673;44.412;11.918;2023-07-29T15:57:09;39.00;65.80
43049;DHT22;28673;44.412;11.918;2023-07-29T15:59:35;38.60;66.20